Pagrindinis puslapis
METAR-TAF:

METAR-TAF

Oro uostai :

Taškentas, Uzbekija

platuma: 41-16N, ilguma: 069-16E, Aukštis: 489 m

Dabartinis oras

Ataskaita buvo paskelbta 21 minutes, ne 04:30 UTC
Vėjas 6 kt iš Rytų/Šiaurės Rytų
Temperatūra 23°C
Drėgmė 25%
Slėgis 1015 hPa
Matomumas 10 km arba daugiau
nėra debesų žemiau 1500 m ir nėra kamuolinių lietaus debesų

METAR: UTTT 180430Z 07006KT CAVOK 23/02 Q1015 R08R/CLRD70 NOSIG

Laikas: 09:51 (04:51 UTC)

Prognozė

Ataskaita buvo paskelbta 5 valandos ir 51 minutes, ne 23:00 UTC
Prognozė galioja nuo 18 metu 00 UTC su 18 metu 24 UTC
Vėjas 10 kt iš Rytų
Matomumas: 7000 m

TAF: UTTT 172300Z 1800/1824 09010KT 7000 NSC

Orai ataskaitas ir orų prognozės (METAR, TAF).

turimą stotys yra geltonos ir raudonos taškus žemėlapyje.

Perkelti pele per norėdami pamatyti stoties vardą.

Tada spustelėkite, norėdami matyti oro stebėjimo ir prognozės.

Norėdami pakeisti žemėlapį: spustelėkite ant žalios mygtukų su juodo kryžiaus žemyn,; žalią mygtuką su brūkšneliu, jei norite nutolinti; arba žalių rodyklių gretimoms žemėlapius.


METAR-TAF: